Skip Navigation Links Skip Navigation Links

Current Weather

Greater Kankakee, Kankakee, Ill.

For information only: do not use for flight planning or navigation.
Latest weather
Observation time Tuesday, September 28, 2021 4:55 AM CDT
Local time Tuesday, September 28, 2021 5:18 AM CDT
Flight conditions Visual Meteorological Conditions
Winds
Wind direction North-Northeast (20°)
Wind speed 8 mph
Visibility 10 mi.
Sky condition
Ceiling unlimited
Sky clear
Temperature 61°F
Dewpoint 61°F
Altimeter 29.93 in.Hg
Derived measurements
Relative humidity 100%
Density altitude 988 ft.
Remarks
Fully automated report.
Automated weather observing station with precipitation discriminator.
METAR KIKK 280955Z AUTO 02007KT 10SM CLR 16/16 A2993 RMK AO2

Settings

Location code

InnerDrive.Weather 4.0.6770.0 Release CLR 4.0.30319.42000
Copyright ©2018 Inner Drive Technology. All rights reserved. Portions Copyright ©1986-2018 David Braverman.

Find weather

Site navigation


Skip Navigation Links

Place info

Page info

PayPal - The safer, easier way to pay online!

Return home.

Copyright ©2021 Inner Drive Technology. Purveyors of fine, hand-crafted computer software. Page printed 2021-09-28T10:18:16 UTC.